createdAt,value
2014-09-26T00:00:16.551Z,15.64
2014-09-26T00:01:21.224Z,15.58
2014-09-26T00:02:25.913Z,15.56
2014-09-26T00:03:30.588Z,15.52
2014-09-26T00:04:35.278Z,15.46
2014-09-26T00:05:39.966Z,15.52
2014-09-26T00:06:44.641Z,15.54
2014-09-26T00:07:49.330Z,15.61
2014-09-26T00:08:54.300Z,15.46
2014-09-26T00:09:58.991Z,15.54
2014-09-26T00:11:03.961Z,15.42
2014-09-26T00:12:08.651Z,15.2
2014-09-26T00:13:13.637Z,15.31
2014-09-26T00:14:18.311Z,15.54
2014-09-26T00:15:22.986Z,15.64
2014-09-26T00:16:27.675Z,15.45
2014-09-26T00:17:32.348Z,15.38
2014-09-26T00:18:37.039Z,15.56
2014-09-26T00:19:42.025Z,15.54
2014-09-26T00:20:46.698Z,15.56
2014-09-26T00:21:51.389Z,15.66
2014-09-26T00:22:56.063Z,15.66
2014-09-26T00:24:00.361Z,15.73
2014-09-26T00:25:05.051Z,15.63
2014-09-26T00:26:09.725Z,15.44
2014-09-26T00:27:14.711Z,15.61
2014-09-26T00:28:19.401Z,15.48
2014-09-26T00:29:24.075Z,15.54
2014-09-26T00:30:28.765Z,15.46
2014-09-26T00:31:33.455Z,15.36
2014-09-26T00:32:38.127Z,15.42
2014-09-26T00:33:42.818Z,15.67
2014-09-26T00:34:47.492Z,15.65
2014-09-26T00:35:52.180Z,15.65
2014-09-26T00:36:56.871Z,15.64
2014-09-26T00:38:01.842Z,15.53
2014-09-26T00:39:06.531Z,15.47
2014-09-26T00:40:11.517Z,15.44
2014-09-26T00:41:16.191Z,15.48
2014-09-26T00:42:21.179Z,15.42
2014-09-26T00:43:25.867Z,15.42
2014-09-26T00:44:30.557Z,15.32
2014-09-26T00:45:35.231Z,15.16
2014-09-26T00:46:39.921Z,15.3
2014-09-26T00:47:44.595Z,15.56
2014-09-26T00:48:49.283Z,15.57
2014-09-26T00:49:54.254Z,15.5
2014-09-26T00:50:59.242Z,15.3
2014-09-26T00:52:03.931Z,15.3
2014-09-26T00:53:08.902Z,15.4
2014-09-26T00:54:12.904Z,15.4
2014-09-26T00:55:17.875Z,15.08
2014-09-26T00:56:22.564Z,15.13
2014-09-26T00:57:27.550Z,15.24
2014-09-26T00:58:32.224Z,15.3
2014-09-26T00:59:36.914Z,15.35
2014-09-26T01:00:41.900Z,15.22
2014-09-26T01:01:46.872Z,15.1
2014-09-26T01:02:51.857Z,15.25
2014-09-26T01:03:56.531Z,15.33
2014-09-26T01:05:01.222Z,15.39
2014-09-26T01:06:05.911Z,15.25
2014-09-26T01:07:10.585Z,15.16
2014-09-26T01:08:15.275Z,15.03
2014-09-26T01:09:20.245Z,15.18
2014-09-26T01:10:25.232Z,15.19
2014-09-26T01:11:29.906Z,15.21
2014-09-26T01:12:34.595Z,15.2
2014-09-26T01:13:39.286Z,15.06
2014-09-26T01:14:43.958Z,15.19
2014-09-26T01:15:48.649Z,15.36
2014-09-26T01:16:53.634Z,15.45
2014-09-26T01:17:58.308Z,15.27
2014-09-26T01:19:02.999Z,15.16
2014-09-26T01:20:07.688Z,15.05
2014-09-26T01:21:12.362Z,15.1
2014-09-26T01:22:17.052Z,15
2014-09-26T01:23:21.725Z,15
2014-09-26T01:24:26.399Z,15.1
2014-09-26T01:25:31.089Z,14.84
2014-09-26T01:26:35.763Z,14.76
2014-09-26T01:27:40.452Z,14.92
2014-09-26T01:28:45.424Z,15.02
2014-09-26T01:29:50.112Z,15.1
2014-09-26T01:30:55.100Z,15.04
2014-09-26T01:31:59.773Z,15.2
2014-09-26T01:33:04.462Z,15.19
2014-09-26T01:34:09.153Z,15.31
2014-09-26T01:35:13.827Z,15.18
2014-09-26T01:36:18.516Z,15.32
2014-09-26T01:37:23.487Z,15.34
2014-09-26T01:38:28.472Z,15.42
2014-09-26T01:39:33.163Z,15.43
2014-09-26T01:40:37.837Z,15.04
2014-09-26T01:41:42.526Z,14.96
2014-09-26T01:42:47.200Z,15.17
2014-09-26T01:43:52.186Z,15.05
2014-09-26T01:44:56.860Z,14.97
2014-09-26T01:46:01.551Z,15.01
2014-09-26T01:47:06.520Z,15.1
2014-09-26T01:48:11.210Z,15.08
2014-09-26T01:49:15.885Z,15.19
2014-09-26T01:50:20.871Z,15.12
2014-09-26T01:51:25.842Z,14.66
2014-09-26T01:52:30.531Z,14.55
2014-09-26T01:53:35.205Z,14.47
2014-09-26T01:54:39.895Z,14.75
2014-09-26T01:55:44.569Z,14.77
2014-09-26T01:56:49.555Z,14.67
2014-09-26T01:57:54.229Z,14.66
2014-09-26T01:58:58.918Z,14.5
2014-09-26T02:00:03.592Z,14.52
2014-09-26T02:01:08.266Z,14.78
2014-09-26T02:02:13.253Z,14.71
2014-09-26T02:03:17.926Z,14.82
2014-09-26T02:04:22.616Z,14.87
2014-09-26T02:05:27.291Z,14.85
2014-09-26T02:06:32.277Z,14.92
2014-09-26T02:07:37.248Z,14.94
2014-09-26T02:08:42.219Z,14.79
2014-09-26T02:09:47.205Z,14.88
2014-09-26T02:10:51.879Z,14.68
2014-09-26T02:11:56.568Z,14.42
2014-09-26T02:13:01.539Z,14.52
2014-09-26T02:14:06.229Z,14.32
2014-09-26T02:15:10.903Z,14.55
2014-09-26T02:16:15.609Z,14.68
2014-09-26T02:17:20.282Z,14.5
2014-09-26T02:18:25.252Z,14.28
2014-09-26T02:19:30.240Z,14.28
2014-09-26T02:20:34.914Z,14.15
2014-09-26T02:21:39.587Z,14.18
2014-09-26T02:22:44.574Z,14.34
2014-09-26T02:23:49.559Z,14.47
2014-09-26T02:24:54.531Z,14.71
2014-09-26T02:25:59.517Z,14.74
2014-09-26T02:27:04.489Z,14.58
2014-09-26T02:28:09.179Z,14.53
2014-09-26T02:29:13.851Z,14.54
2014-09-26T02:30:18.525Z,14.5
2014-09-26T02:31:23.216Z,14.56
2014-09-26T02:32:27.890Z,14.56
2014-09-26T02:33:32.579Z,14.3
2014-09-26T02:34:37.253Z,14.19
2014-09-26T02:35:42.239Z,14.12
2014-09-26T02:36:46.912Z,14.35
2014-09-26T02:37:51.586Z,14.43
2014-09-26T02:38:56.277Z,14.38
2014-09-26T02:40:01.247Z,14.34
2014-09-26T02:41:06.234Z,14.28
2014-09-26T02:42:10.923Z,14.14
2014-09-26T02:43:15.597Z,14.27
2014-09-26T02:44:20.569Z,14.54
2014-09-26T02:45:25.257Z,14.37
2014-09-26T02:46:29.931Z,14.4
2014-09-26T02:47:34.605Z,14.23
2014-09-26T02:48:39.296Z,14.28
2014-09-26T02:49:43.969Z,14.21
2014-09-26T02:50:47.971Z,14.12
2014-09-26T02:51:52.645Z,14.36
2014-09-26T02:52:57.319Z,14.51
2014-09-26T02:54:01.321Z,14.5
2014-09-26T02:55:05.995Z,14.67
2014-09-26T02:56:10.685Z,14.84
2014-09-26T02:57:15.359Z,14.6
2014-09-26T02:58:20.329Z,14.71
2014-09-26T02:59:25.316Z,14.88
2014-09-26T03:00:29.990Z,14.96
2014-09-26T03:01:34.977Z,14.89
2014-09-26T03:02:39.651Z,14.9
2014-09-26T03:03:44.324Z,14.95
2014-09-26T03:04:49.013Z,14.97
2014-09-26T03:05:53.312Z,15.04
2014-09-26T03:06:58.284Z,14.91
2014-09-26T03:08:02.958Z,14.75
2014-09-26T03:09:07.646Z,14.61
2014-09-26T03:10:12.321Z,14.78
2014-09-26T03:11:16.995Z,14.75
2014-09-26T03:12:21.981Z,14.57
2014-09-26T03:13:26.655Z,14.75
2014-09-26T03:14:31.346Z,14.77
2014-09-26T03:15:36.315Z,14.79
2014-09-26T03:16:40.989Z,14.95
2014-09-26T03:17:45.679Z,14.92
2014-09-26T03:18:50.354Z,14.85
2014-09-26T03:19:54.356Z,14.7
2014-09-26T03:20:59.030Z,14.96
2014-09-26T03:22:03.719Z,14.6
2014-09-26T03:23:08.393Z,14.46
2014-09-26T03:24:13.082Z,14.22
2014-09-26T03:25:17.756Z,14.44
2014-09-26T03:26:22.446Z,14.49
2014-09-26T03:27:27.120Z,14.34
2014-09-26T03:28:31.809Z,14.07
2014-09-26T03:29:36.484Z,14.16
2014-09-26T03:30:41.158Z,14.28
2014-09-26T03:31:45.846Z,14.44
2014-09-26T03:32:50.520Z,14.73
2014-09-26T03:33:55.194Z,14.68
2014-09-26T03:35:00.182Z,14.73
2014-09-26T03:36:05.151Z,14.12
2014-09-26T03:37:10.139Z,14.33
2014-09-26T03:38:15.109Z,14.26
2014-09-26T03:39:19.799Z,14.54
2014-09-26T03:40:24.473Z,14.62
2014-09-26T03:41:29.444Z,14.44
2014-09-26T03:42:34.134Z,14.36
2014-09-26T03:43:38.136Z,14.15
2014-09-26T03:44:42.826Z,14.06
2014-09-26T03:45:47.795Z,14.1
2014-09-26T03:46:52.782Z,14.31
2014-09-26T03:47:57.456Z,14.39
2014-09-26T03:49:02.442Z,14.38
2014-09-26T03:50:07.117Z,14.23
2014-09-26T03:51:11.806Z,14.01
2014-09-26T03:52:16.479Z,13.86
2014-09-26T03:53:21.154Z,13.86
2014-09-26T03:54:25.844Z,13.92
2014-09-26T03:55:30.533Z,14.26
2014-09-26T03:56:34.519Z,14.46
2014-09-26T03:57:39.193Z,14.53
2014-09-26T03:58:43.883Z,14.12
2014-09-26T03:59:48.572Z,13.94
2014-09-26T04:00:53.262Z,13.88
2014-09-26T04:01:58.233Z,13.78
2014-09-26T04:03:02.923Z,13.72
2014-09-26T04:04:07.909Z,13.71
2014-09-26T04:05:12.582Z,14.06
2014-09-26T04:06:17.256Z,14.27
2014-09-26T04:07:21.947Z,14.4
2014-09-26T04:08:26.621Z,14.55
2014-09-26T04:09:31.607Z,14.54
2014-09-26T04:10:36.281Z,14.55
2014-09-26T04:11:40.970Z,14.53
2014-09-26T04:12:45.660Z,14.68
2014-09-26T04:13:50.631Z,14.62
2014-09-26T04:14:55.320Z,14.53
2014-09-26T04:15:59.995Z,14.57
2014-09-26T04:17:04.683Z,14.46
2014-09-26T04:18:09.670Z,14.56
2014-09-26T04:19:14.345Z,14.33
2014-09-26T04:20:19.034Z,14.06
2014-09-26T04:21:23.708Z,14.41
2014-09-26T04:22:28.398Z,14.54
2014-09-26T04:23:33.383Z,14.7
2014-09-26T04:24:38.370Z,14.84
2014-09-26T04:25:43.044Z,14.56
2014-09-26T04:26:47.734Z,14.66
2014-09-26T04:27:52.033Z,14.45
2014-09-26T04:28:56.706Z,14.56
2014-09-26T04:30:01.397Z,14.44
2014-09-26T04:31:06.382Z,14.31
2014-09-26T04:32:11.354Z,14.28
2014-09-26T04:33:16.044Z,14.46
2014-09-26T04:34:20.733Z,14.52
2014-09-26T04:35:25.407Z,14.49
2014-09-26T04:36:29.409Z,14.31
2014-09-26T04:37:34.083Z,14.56
2014-09-26T04:38:39.068Z,14.66
2014-09-26T04:39:43.759Z,14.66
2014-09-26T04:40:48.745Z,14.78
2014-09-26T04:41:53.716Z,14.86
2014-09-26T04:42:58.405Z,14.94
2014-09-26T04:44:03.079Z,14.9
2014-09-26T04:45:07.769Z,14.82
2014-09-26T04:46:12.443Z,14.88
2014-09-26T04:47:17.430Z,14.98
2014-09-26T04:48:22.119Z,14.94
2014-09-26T04:49:26.792Z,14.89
2014-09-26T04:50:31.482Z,14.83
2014-09-26T04:51:36.454Z,14.89
2014-09-26T04:52:41.143Z,14.78
2014-09-26T04:53:45.817Z,14.64
2014-09-26T04:54:50.506Z,14.24
2014-09-26T04:55:55.180Z,13.95
2014-09-26T04:56:59.870Z,13.87
2014-09-26T05:00:12.001Z,13.6
2014-09-26T05:01:16.690Z,13.52
2014-09-26T05:02:21.364Z,13.63
2014-09-26T05:03:26.352Z,13.61
2014-09-26T05:04:31.338Z,13.54
2014-09-26T05:05:36.324Z,13.62
2014-09-26T05:06:41.295Z,13.56
2014-09-26T05:07:46.280Z,13.51
2014-09-26T05:08:51.283Z,13.53
2014-09-26T05:09:55.957Z,13.47
2014-09-26T05:11:00.630Z,13.5
2014-09-26T05:12:05.321Z,13.44
2014-09-26T05:13:09.995Z,13.39
2014-09-26T05:14:14.981Z,13.28
2014-09-26T05:15:19.655Z,13.23
2014-09-26T05:16:24.641Z,13.28
2014-09-26T05:17:29.332Z,13.42
2014-09-26T05:18:34.005Z,13.43
2014-09-26T05:19:38.694Z,13.44
2014-09-26T05:20:43.666Z,13.28
2014-09-26T05:21:48.355Z,13.16
2014-09-26T05:22:53.028Z,13.24
2014-09-26T05:23:57.719Z,13.26
2014-09-26T05:25:02.688Z,13.12
2014-09-26T05:26:07.676Z,13.18
2014-09-26T05:27:12.350Z,13.18
2014-09-26T05:28:17.039Z,13.3
2014-09-26T05:29:21.714Z,13.42
2014-09-26T05:30:26.418Z,13.34
2014-09-26T05:31:31.093Z,13.34
2014-09-26T05:32:35.782Z,13.4
2014-09-26T05:33:40.455Z,13.42
2014-09-26T05:34:45.146Z,13.36
2014-09-26T05:35:49.850Z,13.44
2014-09-26T05:36:54.525Z,13.36
2014-09-26T05:37:59.495Z,13.38
2014-09-26T05:39:04.169Z,13.4
2014-09-26T05:40:08.843Z,13.37
2014-09-26T05:41:13.533Z,13.38
2014-09-26T05:42:18.504Z,13.52
2014-09-26T05:43:23.193Z,13.46
2014-09-26T05:44:27.868Z,13.34
2014-09-26T05:45:32.542Z,13.46
2014-09-26T05:46:37.230Z,13.38
2014-09-26T05:47:41.904Z,13.29
2014-09-26T05:48:46.578Z,13.4
2014-09-26T05:49:51.269Z,13.33
2014-09-26T05:50:56.238Z,13.54
2014-09-26T05:52:00.913Z,13.32
2014-09-26T05:53:05.603Z,13.44
2014-09-26T05:54:10.277Z,13.5
2014-09-26T05:55:14.951Z,13.58
2014-09-26T05:56:19.937Z,13.58
2014-09-26T05:57:24.908Z,13.51
2014-09-26T05:58:29.895Z,13.48
2014-09-26T05:59:34.568Z,13.48
2014-09-26T06:00:39.539Z,13.44
2014-09-26T06:01:44.213Z,13.44
2014-09-26T06:02:48.903Z,13.43
2014-09-26T06:03:53.577Z,13.5
2014-09-26T06:04:58.548Z,13.47
2014-09-26T06:06:03.534Z,13.52
2014-09-26T06:07:08.208Z,13.68
2014-09-26T06:08:12.896Z,13.71
2014-09-26T06:09:17.867Z,13.57
2014-09-26T06:10:22.839Z,13.63
2014-09-26T06:11:27.528Z,13.56
2014-09-26T06:12:32.499Z,13.67
2014-09-26T06:13:37.174Z,13.62
2014-09-26T06:14:41.881Z,13.56
2014-09-26T06:15:46.597Z,13.66
2014-09-26T06:16:51.313Z,13.7
2014-09-26T06:17:56.046Z,13.64
2014-09-26T06:19:01.059Z,13.73
2014-09-26T06:20:06.066Z,13.8
2014-09-26T06:21:10.754Z,13.9
2014-09-26T06:22:15.756Z,13.78
2014-09-26T06:23:20.743Z,13.84
2014-09-26T06:24:25.742Z,13.82
2014-09-26T06:25:30.422Z,13.92
2014-09-26T06:26:35.118Z,14
2014-09-26T06:27:40.093Z,13.98
2014-09-26T06:28:45.085Z,13.75
2014-09-26T06:29:49.763Z,13.86
2014-09-26T06:30:54.735Z,13.96
2014-09-26T06:31:59.724Z,15.26
2014-09-26T06:33:04.401Z,15.92
2014-09-26T06:34:09.373Z,16.7
2014-09-26T06:35:14.047Z,16.73
2014-09-26T06:36:19.036Z,16.78
2014-09-26T06:37:23.711Z,17.02
2014-09-26T06:38:28.400Z,17.87
2014-09-26T06:39:33.372Z,18.22
2014-09-26T06:40:38.358Z,17.82
2014-09-26T06:41:43.330Z,17.44
2014-09-26T06:42:48.019Z,17.86
2014-09-26T06:43:52.692Z,17.83
2014-09-26T06:44:57.680Z,17.58
2014-09-26T06:46:02.649Z,17.52
2014-09-26T06:47:07.323Z,18.1
2014-09-26T06:48:12.014Z,17.6
2014-09-26T06:49:16.688Z,17.5
2014-09-26T06:50:21.377Z,17.89
2014-09-26T06:51:26.051Z,17.56
2014-09-26T06:52:31.037Z,17.44
2014-09-26T06:53:35.711Z,16.52
2014-09-26T06:54:40.698Z,15.98
2014-09-26T06:55:45.668Z,15.86
2014-09-26T06:56:50.374Z,15.62
2014-09-26T06:57:55.344Z,15.48
2014-09-26T06:59:00.332Z,15.41
2014-09-26T07:00:04.318Z,15.26
2014-09-26T07:01:09.008Z,15.34
2014-09-26T07:02:13.680Z,15.22
2014-09-26T07:03:18.354Z,15.28
2014-09-26T07:04:23.060Z,15.23
2014-09-26T07:05:27.734Z,15.2
2014-09-26T07:06:32.705Z,15.29
2014-09-26T07:07:37.691Z,15.36
2014-09-26T07:08:42.678Z,15.26
2014-09-26T07:09:47.649Z,15.26
2014-09-26T07:10:52.322Z,15.08
2014-09-26T07:11:57.013Z,14.94
2014-09-26T07:13:01.984Z,15.02
2014-09-26T07:14:06.970Z,15.17
2014-09-26T07:15:11.644Z,15.15
2014-09-26T07:16:16.333Z,15.08
2014-09-26T07:17:21.006Z,15.02
2014-09-26T07:18:25.978Z,15.1
2014-09-26T07:19:30.668Z,15.17
2014-09-26T07:20:35.638Z,15.22
2014-09-26T07:21:40.328Z,15.32
2014-09-26T07:22:44.330Z,15.53
2014-09-26T07:23:49.301Z,15.72
2014-09-26T07:24:54.287Z,15.21
2014-09-26T07:25:58.962Z,15.02
2014-09-26T07:27:03.964Z,14.85
2014-09-26T07:28:08.638Z,15.15
2014-09-26T07:29:13.326Z,15.05
2014-09-26T07:30:18.001Z,14.9
2014-09-26T07:31:22.691Z,14.98
2014-09-26T07:32:27.364Z,15.32
2014-09-26T07:33:32.351Z,15.68
2014-09-26T07:34:37.025Z,15.36
2014-09-26T07:35:42.011Z,15.34
2014-09-26T07:36:46.685Z,15.34
2014-09-26T07:37:51.359Z,15.42
2014-09-26T07:38:56.033Z,15.37
2014-09-26T07:40:00.738Z,15.56
2014-09-26T07:41:05.709Z,15.84
2014-09-26T07:42:10.399Z,16.04
2014-09-26T07:43:15.072Z,16.01
2014-09-26T07:44:20.058Z,16.08
2014-09-26T07:45:25.030Z,16.03
2014-09-26T07:46:30.016Z,16.16
2014-09-26T07:47:34.706Z,16.38
2014-09-26T07:48:39.380Z,15.91
2014-09-26T07:49:44.365Z,16
2014-09-26T07:50:49.040Z,15.58
2014-09-26T07:51:53.730Z,15.98
2014-09-26T07:52:58.403Z,16
2014-09-26T07:54:03.390Z,15.82
2014-09-26T07:55:08.376Z,16.08
2014-09-26T07:56:13.051Z,16.18
2014-09-26T07:57:17.741Z,16.23
2014-09-26T07:58:22.413Z,16.19
2014-09-26T07:59:27.103Z,16.46
2014-09-26T08:00:31.778Z,16.25
2014-09-26T08:01:36.467Z,16.16
2014-09-26T08:02:41.140Z,15.98
2014-09-26T08:03:45.831Z,16.14
2014-09-26T08:04:50.505Z,16.39
2014-09-26T08:05:55.210Z,16.5
2014-09-26T08:06:59.884Z,16.49
2014-09-26T08:08:04.573Z,16.47
2014-09-26T08:09:09.248Z,16.65
2014-09-26T08:10:14.233Z,16.9
2014-09-26T08:11:18.907Z,17.08
2014-09-26T08:12:23.598Z,17.23
2014-09-26T08:13:28.567Z,17.72
2014-09-26T08:14:33.257Z,18.5
2014-09-26T08:15:37.932Z,18.76
2014-09-26T08:16:42.917Z,18.84
2014-09-26T08:17:47.592Z,18.21
2014-09-26T08:18:52.578Z,18.34
2014-09-26T08:19:57.252Z,18.22
2014-09-26T08:21:01.942Z,18.18
2014-09-26T08:22:06.631Z,18.47
2014-09-26T08:23:11.603Z,18.57
2014-09-26T08:24:16.292Z,18.27
2014-09-26T08:25:20.981Z,18.26
2014-09-26T08:26:25.953Z,19.08
2014-09-26T08:27:30.641Z,19.32
2014-09-26T08:28:35.643Z,19.8
2014-09-26T08:29:40.334Z,19.07
2014-09-26T08:30:45.008Z,18.32
2014-09-26T08:31:49.994Z,18.78
2014-09-26T08:32:54.762Z,18.64
2014-09-26T08:33:59.748Z,18.54
2014-09-26T08:35:04.438Z,18.61
2014-09-26T08:36:09.127Z,18.69
2014-09-26T08:37:13.801Z,18.82
2014-09-26T08:38:18.787Z,18.91
2014-09-26T08:39:23.477Z,18.86
2014-09-26T08:40:28.166Z,18.8
2014-09-26T08:41:32.840Z,19.1
2014-09-26T08:42:36.842Z,19.07
2014-09-26T08:43:40.844Z,19.28
2014-09-26T08:44:45.535Z,19.46
2014-09-26T08:45:50.504Z,19.18
2014-09-26T08:46:55.492Z,19.08
2014-09-26T08:48:00.180Z,19
2014-09-26T08:49:05.168Z,19.25
2014-09-26T08:50:09.842Z,19.47
2014-09-26T08:51:14.531Z,19.5
2014-09-26T08:52:19.517Z,19.25
2014-09-26T08:53:24.191Z,19.14
2014-09-26T08:54:29.178Z,18.98
2014-09-26T08:55:33.867Z,19.24
2014-09-26T08:56:38.558Z,18.99
2014-09-26T08:57:43.231Z,18.91
2014-09-26T08:58:48.218Z,19.09
2014-09-26T08:59:52.907Z,19.79
2014-09-26T09:00:57.877Z,20.23
2014-09-26T09:02:02.865Z,19.8
2014-09-26T09:03:07.851Z,19.48
2014-09-26T09:04:12.540Z,19.48
2014-09-26T09:05:17.214Z,19.1
2014-09-26T09:06:21.904Z,19
2014-09-26T09:07:26.578Z,19.03
2014-09-26T09:08:31.267Z,18.87
2014-09-26T09:09:36.255Z,18.79
2014-09-26T09:10:40.927Z,19
2014-09-26T09:11:45.618Z,19.09
2014-09-26T09:12:50.604Z,19.14
2014-09-26T09:13:55.277Z,18.95
2014-09-26T09:15:00.265Z,19.39
2014-09-26T09:16:04.954Z,19.59
2014-09-26T09:17:09.940Z,19.68
2014-09-26T09:18:14.614Z,19.78
2014-09-26T09:19:19.304Z,20.06
2014-09-26T09:20:23.993Z,19.5
2014-09-26T09:21:28.981Z,19.68
2014-09-26T09:22:33.654Z,20.16
2014-09-26T09:23:38.344Z,20.13
2014-09-26T09:24:43.018Z,19.51
2014-09-26T09:25:47.706Z,20.16
2014-09-26T09:26:52.380Z,20.59
2014-09-26T09:27:57.071Z,20.59
2014-09-26T09:29:01.745Z,20.81
2014-09-26T09:30:06.433Z,21.07
2014-09-26T09:31:11.108Z,20.41
2014-09-26T09:32:15.798Z,20.67
2014-09-26T09:33:20.487Z,20.14
2014-09-26T09:34:25.161Z,20.46
2014-09-26T09:35:29.850Z,20.46
2014-09-26T09:36:34.524Z,20.88
2014-09-26T09:37:38.823Z,20.34
2014-09-26T09:38:43.514Z,20.14
2014-09-26T09:39:48.483Z,19.95
2014-09-26T09:40:53.471Z,19.78
2014-09-26T09:41:58.441Z,19.68
2014-09-26T09:43:03.147Z,19.86
2014-09-26T09:44:07.820Z,20.2
2014-09-26T09:45:12.510Z,20.5
2014-09-26T09:46:17.184Z,21.04
2014-09-26T09:47:22.169Z,20.95
2014-09-26T09:48:26.859Z,20.57
2014-09-26T09:49:31.534Z,20.42
2014-09-26T09:50:36.223Z,21
2014-09-26T09:51:40.897Z,21.12
2014-09-26T09:52:45.587Z,20.73
2014-09-26T09:53:50.260Z,20.87
2014-09-26T09:54:54.951Z,20.46
2014-09-26T09:55:59.936Z,21.1
2014-09-26T09:57:04.610Z,21.31
2014-09-26T09:58:09.301Z,21.36
2014-09-26T09:59:14.286Z,20.56
2014-09-26T10:00:18.977Z,20.56
2014-09-26T10:01:23.650Z,20.85
2014-09-26T10:02:28.637Z,20.8
2014-09-26T10:03:33.326Z,21.12
2014-09-26T10:04:38.313Z,21.48
2014-09-26T10:05:42.987Z,21.14
2014-09-26T10:06:47.677Z,20.94
2014-09-26T10:07:52.647Z,20.8
2014-09-26T10:08:57.336Z,20.58
2014-09-26T10:10:02.323Z,20.56
2014-09-26T10:11:06.997Z,20.54
2014-09-26T10:12:11.687Z,20.38
2014-09-26T10:13:16.672Z,20.08
2014-09-26T10:14:21.362Z,20.5
2014-09-26T10:15:26.037Z,21
2014-09-26T10:16:31.022Z,21.04
2014-09-26T10:17:36.010Z,21.08
2014-09-26T10:18:40.683Z,21.16
2014-09-26T10:19:45.373Z,21.02
2014-09-26T10:20:50.062Z,20.73
2014-09-26T10:21:54.736Z,20.58
2014-09-26T10:22:59.426Z,20.9
2014-09-26T10:24:04.100Z,20.83
2014-09-26T10:25:08.789Z,20.52
2014-09-26T10:26:13.776Z,20.68
2014-09-26T10:27:18.465Z,20.62
2014-09-26T10:28:23.437Z,20.37
2014-09-26T10:29:28.125Z,20.64
2014-09-26T10:30:32.815Z,20.62
2014-09-26T10:31:37.787Z,20.52
2014-09-26T10:32:42.773Z,20.87
2014-09-26T10:33:47.462Z,20.69
2014-09-26T10:34:52.136Z,20.54
2014-09-26T10:35:56.826Z,20.32
2014-09-26T10:37:01.500Z,20.3
2014-09-26T10:38:06.189Z,20.24
2014-09-26T10:39:10.879Z,20.19
2014-09-26T10:40:15.553Z,20.59
2014-09-26T10:41:20.243Z,20.85
2014-09-26T10:42:24.933Z,20.62
2014-09-26T10:43:29.605Z,20.67
2014-09-26T10:44:34.296Z,20.9
2014-09-26T10:45:38.970Z,21.23
2014-09-26T10:46:43.658Z,20.7
2014-09-26T10:47:48.348Z,21.09
2014-09-26T10:48:53.023Z,20.92
2014-09-26T10:49:57.712Z,21.14
2014-09-26T10:51:02.386Z,21.22
2014-09-26T10:52:07.372Z,21.03
2014-09-26T10:53:12.359Z,21.05
2014-09-26T10:54:17.033Z,21.16
2014-09-26T10:55:22.020Z,20.88
2014-09-26T10:56:26.709Z,20.93
2014-09-26T10:57:31.399Z,20.98
2014-09-26T10:58:36.088Z,20.73
2014-09-26T10:59:41.075Z,20.8
2014-09-26T11:00:45.749Z,21.29
2014-09-26T11:01:50.438Z,21.51
2014-09-26T11:02:55.111Z,21.73
2014-09-26T11:03:59.802Z,21.49
2014-09-26T11:05:04.788Z,21.54
2014-09-26T11:06:09.462Z,21.48
2014-09-26T11:07:14.151Z,21.9
2014-09-26T11:08:18.841Z,22.06
2014-09-26T11:09:22.827Z,22
2014-09-26T11:10:27.517Z,21.43
2014-09-26T11:11:32.206Z,21.28
2014-09-26T11:12:36.880Z,21.11
2014-09-26T11:13:41.571Z,20.91
2014-09-26T11:14:46.245Z,20.85
2014-09-26T11:15:50.934Z,21.14
2014-09-26T11:16:55.920Z,21.13
2014-09-26T11:18:00.906Z,21.23
2014-09-26T11:19:05.878Z,21.32
2014-09-26T11:20:10.567Z,21.19
2014-09-26T11:21:15.257Z,20.99
2014-09-26T11:22:19.930Z,20.88
2014-09-26T11:23:24.917Z,21.24
2014-09-26T11:24:29.591Z,21.38
2014-09-26T11:25:34.280Z,21.53
2014-09-26T11:26:38.282Z,21.69
2014-09-26T11:27:43.254Z,21.26
2014-09-26T11:28:47.942Z,21.28
2014-09-26T11:29:52.633Z,21.6
2014-09-26T11:30:57.619Z,22.05
2014-09-26T11:32:02.292Z,22.44
2014-09-26T11:33:06.983Z,22.6
2014-09-26T11:34:11.657Z,22.22
2014-09-26T11:35:16.362Z,21.64
2014-09-26T11:36:21.348Z,21.39
2014-09-26T11:37:26.022Z,21.53
2014-09-26T11:38:30.711Z,21.44
2014-09-26T11:39:35.402Z,21.17
2014-09-26T11:40:40.075Z,21.42
2014-09-26T11:41:44.764Z,21.34
2014-09-26T11:42:49.469Z,21.59
2014-09-26T11:43:54.209Z,21.46
2014-09-26T11:44:58.915Z,21.55
2014-09-26T11:46:03.603Z,21.46
2014-09-26T11:47:08.294Z,21.8
2014-09-26T11:48:12.968Z,21.66
2014-09-26T11:49:17.656Z,21.6
2014-09-26T11:50:22.347Z,21.47
2014-09-26T11:51:27.021Z,21.98
2014-09-26T11:52:31.758Z,22.12
2014-09-26T11:53:36.446Z,22.04
2014-09-26T11:54:40.464Z,21.78
2014-09-26T11:55:45.139Z,21.56
2014-09-26T11:56:50.124Z,21.72
2014-09-26T11:57:54.815Z,21.85
2014-09-26T11:58:59.503Z,22.24
2014-09-26T12:00:04.491Z,21.99
2014-09-26T12:01:09.195Z,22.38
2014-09-26T12:02:13.870Z,22.24
2014-09-26T12:03:18.558Z,21.97
2014-09-26T12:04:23.249Z,22.06
2014-09-26T12:05:27.938Z,21.91
2014-09-26T12:06:32.628Z,22.14
2014-09-26T12:07:37.598Z,22.44
2014-09-26T12:08:42.288Z,22.34
2014-09-26T12:09:46.977Z,22.56
2014-09-26T12:10:51.651Z,21.99
2014-09-26T12:11:56.342Z,21.72
2014-09-26T12:13:01.030Z,22.2
2014-09-26T12:14:05.721Z,22.61
2014-09-26T12:15:10.395Z,22.97
2014-09-26T12:16:15.083Z,23.03
2014-09-26T12:17:19.774Z,22.78
2014-09-26T12:18:24.463Z,22.44
2014-09-26T12:19:29.137Z,22.32
2014-09-26T12:20:33.827Z,22.77
2014-09-26T12:21:38.813Z,22.65
2014-09-26T12:22:43.502Z,22.19
2014-09-26T12:23:48.176Z,21.67
2014-09-26T12:24:52.866Z,22
2014-09-26T12:25:57.555Z,22.14
2014-09-26T12:27:02.543Z,21.8
2014-09-26T12:28:07.217Z,22.58
2014-09-26T12:29:12.204Z,22.76
2014-09-26T12:30:16.892Z,22.57
2014-09-26T12:31:21.588Z,22.54
2014-09-26T12:32:26.573Z,22.97
2014-09-26T12:33:31.264Z,22.8
2014-09-26T12:34:35.953Z,22.65
2014-09-26T12:35:40.627Z,22.49
2014-09-26T12:36:45.613Z,22.69
2014-09-26T12:37:50.303Z,22.92
2014-09-26T12:38:55.289Z,22.84
2014-09-26T12:39:59.979Z,22.59
2014-09-26T12:41:04.668Z,22.46
2014-09-26T12:42:09.655Z,22.5
2014-09-26T12:43:14.344Z,22.78
2014-09-26T12:44:19.019Z,22.56
2014-09-26T12:45:23.709Z,21.58
2014-09-26T12:46:28.398Z,22.34
2014-09-26T12:47:33.102Z,22.16
2014-09-26T12:48:37.793Z,22.5
2014-09-26T12:49:42.482Z,22.55
2014-09-26T12:50:47.156Z,22.62
2014-09-26T12:51:51.846Z,22.5
2014-09-26T12:52:56.536Z,22.28
2014-09-26T12:54:01.225Z,22.09
2014-09-26T12:55:05.914Z,22.24
2014-09-26T12:56:10.589Z,22.12
2014-09-26T12:57:15.277Z,22.14
2014-09-26T12:58:19.968Z,21.97
2014-09-26T12:59:24.953Z,22.44
2014-09-26T13:00:29.644Z,22.56
2014-09-26T13:01:34.629Z,22.52
2014-09-26T13:02:39.617Z,22.64
2014-09-26T13:03:44.306Z,22.45
2014-09-26T13:04:48.996Z,22.25
2014-09-26T13:05:53.685Z,22.41
2014-09-26T13:06:58.375Z,22.76
2014-09-26T13:08:03.048Z,22.86
2014-09-26T13:09:07.738Z,22.76
2014-09-26T13:10:12.443Z,22.57
2014-09-26T13:11:17.134Z,22.74
2014-09-26T13:12:21.806Z,22.72
2014-09-26T13:13:26.497Z,22.62
2014-09-26T13:14:31.482Z,22.31
2014-09-26T13:15:36.470Z,22.24
2014-09-26T13:16:41.158Z,22.47
2014-09-26T13:17:45.849Z,22.96
2014-09-26T13:18:50.538Z,22.51
2014-09-26T13:19:55.212Z,22.96
2014-09-26T13:21:00.198Z,22.56
2014-09-26T13:22:05.185Z,22.3
2014-09-26T13:23:09.874Z,22.22
2014-09-26T13:24:14.548Z,22.41
2014-09-26T13:25:19.238Z,22.63
2014-09-26T13:26:24.225Z,22.68
2014-09-26T13:27:28.914Z,22.73
2014-09-26T13:28:33.604Z,22.88
2014-09-26T13:29:38.293Z,22.77
2014-09-26T13:30:42.983Z,22.61
2014-09-26T13:31:47.673Z,22.75
2014-09-26T13:32:52.346Z,22.68
2014-09-26T13:33:57.036Z,22.57
2014-09-26T13:35:01.725Z,22.38
2014-09-26T13:36:06.415Z,22.37
2014-09-26T13:37:11.104Z,22.67
2014-09-26T13:38:16.106Z,22.8
2014-09-26T13:39:21.093Z,22.88
2014-09-26T13:40:25.782Z,23.21
2014-09-26T13:41:30.472Z,23.13
2014-09-26T13:42:35.146Z,23.06
2014-09-26T13:43:39.835Z,22.95
2014-09-26T13:44:44.526Z,22.88
2014-09-26T13:45:49.512Z,22.84
2014-09-26T13:46:54.202Z,23.01
2014-09-26T13:47:59.468Z,23.1
2014-09-26T13:49:04.470Z,23.17
2014-09-26T13:50:08.770Z,22.98
2014-09-26T13:51:13.444Z,22.78
2014-09-26T13:52:18.133Z,22.7
2014-09-26T13:53:23.120Z,22.67
2014-09-26T13:54:28.106Z,22.71
2014-09-26T13:55:32.796Z,23.06
2014-09-26T13:56:37.485Z,22.92
2014-09-26T13:57:42.175Z,22.88
2014-09-26T13:58:47.162Z,22.56
2014-09-26T13:59:51.852Z,22.47